sensor_id;sensor_type;location;lat;lon;timestamp;temperature;humidity
15452;DHT22;7827;53.594;9.938;2022-11-30T00:01:37;5.50;99.90
15452;DHT22;7827;53.594;9.938;2022-11-30T00:04:07;5.50;99.90
15452;DHT22;7827;53.594;9.938;2022-11-30T00:06:35;5.40;99.90
15452;DHT22;7827;53.594;9.938;2022-11-30T00:09:04;5.40;99.90
15452;DHT22;7827;53.594;9.938;2022-11-30T00:11:33;5.40;99.90
15452;DHT22;7827;53.594;9.938;2022-11-30T00:14:01;5.40;99.90
15452;DHT22;7827;53.594;9.938;2022-11-30T00:16:33;5.50;99.90
15452;DHT22;7827;53.594;9.938;2022-11-30T00:19:01;5.40;99.90
15452;DHT22;7827;53.594;9.938;2022-11-30T00:21:30;5.50;99.90
15452;DHT22;7827;53.594;9.938;2022-11-30T00:23:58;5.50;99.90
15452;DHT22;7827;53.594;9.938;2022-11-30T00:26:27;5.40;99.90
15452;DHT22;7827;53.594;9.938;2022-11-30T00:28:55;5.40;99.90
15452;DHT22;7827;53.594;9.938;2022-11-30T00:31:24;5.40;99.90
15452;DHT22;7827;53.594;9.938;2022-11-30T00:33:54;5.50;99.90
15452;DHT22;7827;53.594;9.938;2022-11-30T00:36:22;5.50;99.90
15452;DHT22;7827;53.594;9.938;2022-11-30T00:38:51;5.60;99.90
15452;DHT22;7827;53.594;9.938;2022-11-30T00:41:19;5.70;99.90
15452;DHT22;7827;53.594;9.938;2022-11-30T00:43:48;5.60;99.90
15452;DHT22;7827;53.594;9.938;2022-11-30T00:46:16;5.60;99.90
15452;DHT22;7827;53.594;9.938;2022-11-30T00:48:45;5.60;99.90
15452;DHT22;7827;53.594;9.938;2022-11-30T00:51:15;5.60;99.90
15452;DHT22;7827;53.594;9.938;2022-11-30T00:53:44;5.60;99.90
15452;DHT22;7827;53.594;9.938;2022-11-30T00:56:14;5.60;99.90
15452;DHT22;7827;53.594;9.938;2022-11-30T00:58:42;5.60;99.90
15452;DHT22;7827;53.594;9.938;2022-11-30T01:01:12;5.50;99.90
15452;DHT22;7827;53.594;9.938;2022-11-30T01:03:40;5.50;99.90
15452;DHT22;7827;53.594;9.938;2022-11-30T01:06:09;5.50;99.90
15452;DHT22;7827;53.594;9.938;2022-11-30T01:08:38;5.50;99.90
15452;DHT22;7827;53.594;9.938;2022-11-30T01:11:09;5.60;99.90
15452;DHT22;7827;53.594;9.938;2022-11-30T01:13:41;5.50;99.90
15452;DHT22;7827;53.594;9.938;2022-11-30T01:16:11;5.40;99.90
15452;DHT22;7827;53.594;9.938;2022-11-30T01:18:42;5.40;99.90
15452;DHT22;7827;53.594;9.938;2022-11-30T01:21:14;5.30;99.90
15452;DHT22;7827;53.594;9.938;2022-11-30T01:23:47;5.30;99.90
15452;DHT22;7827;53.594;9.938;2022-11-30T01:26:16;5.20;99.90
15452;DHT22;7827;53.594;9.938;2022-11-30T01:28:49;5.20;99.90
15452;DHT22;7827;53.594;9.938;2022-11-30T01:31:19;5.10;99.90
15452;DHT22;7827;53.594;9.938;2022-11-30T01:33:49;5.00;99.90
15452;DHT22;7827;53.594;9.938;2022-11-30T01:36:20;5.10;99.90
15452;DHT22;7827;53.594;9.938;2022-11-30T01:38:52;5.10;99.90
15452;DHT22;7827;53.594;9.938;2022-11-30T01:41:23;5.10;99.90
15452;DHT22;7827;53.594;9.938;2022-11-30T01:43:54;5.00;99.90
15452;DHT22;7827;53.594;9.938;2022-11-30T01:46:31;5.00;99.90
15452;DHT22;7827;53.594;9.938;2022-11-30T01:49:13;5.00;99.90
15452;DHT22;7827;53.594;9.938;2022-11-30T01:51:47;5.00;99.90
15452;DHT22;7827;53.594;9.938;2022-11-30T01:54:23;5.00;99.90
15452;DHT22;7827;53.594;9.938;2022-11-30T01:57:01;5.10;99.90
15452;DHT22;7827;53.594;9.938;2022-11-30T01:59:33;5.20;99.90
15452;DHT22;7827;53.594;9.938;2022-11-30T02:02:03;5.30;99.90
15452;DHT22;7827;53.594;9.938;2022-11-30T02:04:34;5.20;99.90
15452;DHT22;7827;53.594;9.938;2022-11-30T02:07:07;5.30;99.90
15452;DHT22;7827;53.594;9.938;2022-11-30T02:09:43;5.30;99.90
15452;DHT22;7827;53.594;9.938;2022-11-30T02:12:18;5.40;99.90
15452;DHT22;7827;53.594;9.938;2022-11-30T02:14:54;5.40;99.90
15452;DHT22;7827;53.594;9.938;2022-11-30T02:17:36;5.20;99.90
15452;DHT22;7827;53.594;9.938;2022-11-30T02:20:35;5.30;99.90
15452;DHT22;7827;53.594;9.938;2022-11-30T02:23:33;5.30;99.90
15452;DHT22;7827;53.594;9.938;2022-11-30T02:26:26;5.20;99.90
15452;DHT22;7827;53.594;9.938;2022-11-30T02:29:13;5.30;99.90
15452;DHT22;7827;53.594;9.938;2022-11-30T02:31:49;5.30;99.90
15452;DHT22;7827;53.594;9.938;2022-11-30T02:34:28;5.20;99.90
15452;DHT22;7827;53.594;9.938;2022-11-30T02:37:00;5.20;99.90
15452;DHT22;7827;53.594;9.938;2022-11-30T02:39:30;5.20;99.90
15452;DHT22;7827;53.594;9.938;2022-11-30T02:41:58;5.10;99.90
15452;DHT22;7827;53.594;9.938;2022-11-30T02:44:28;5.10;99.90
15452;DHT22;7827;53.594;9.938;2022-11-30T02:47:10;5.10;99.90
15452;DHT22;7827;53.594;9.938;2022-11-30T02:49:49;5.20;99.90
15452;DHT22;7827;53.594;9.938;2022-11-30T02:52:23;5.10;99.90
15452;DHT22;7827;53.594;9.938;2022-11-30T02:54:58;5.10;99.90
15452;DHT22;7827;53.594;9.938;2022-11-30T02:57:27;5.20;99.90
15452;DHT22;7827;53.594;9.938;2022-11-30T02:59:58;5.20;99.90
15452;DHT22;7827;53.594;9.938;2022-11-30T03:02:29;5.20;99.90
15452;DHT22;7827;53.594;9.938;2022-11-30T03:04:57;5.20;99.90
15452;DHT22;7827;53.594;9.938;2022-11-30T03:07:26;5.30;99.90
15452;DHT22;7827;53.594;9.938;2022-11-30T03:09:54;5.30;99.90
15452;DHT22;7827;53.594;9.938;2022-11-30T03:12:22;5.30;99.90
15452;DHT22;7827;53.594;9.938;2022-11-30T03:14:51;5.20;99.90
15452;DHT22;7827;53.594;9.938;2022-11-30T03:17:21;5.20;99.90
15452;DHT22;7827;53.594;9.938;2022-11-30T03:19:50;5.10;99.90
15452;DHT22;7827;53.594;9.938;2022-11-30T03:22:18;5.10;99.90
15452;DHT22;7827;53.594;9.938;2022-11-30T03:24:47;5.10;99.90
15452;DHT22;7827;53.594;9.938;2022-11-30T03:27:16;5.10;99.90
15452;DHT22;7827;53.594;9.938;2022-11-30T03:29:44;5.10;99.90
15452;DHT22;7827;53.594;9.938;2022-11-30T03:32:13;5.10;99.90
15452;DHT22;7827;53.594;9.938;2022-11-30T03:34:43;5.20;99.90
15452;DHT22;7827;53.594;9.938;2022-11-30T03:37:11;5.20;99.90
15452;DHT22;7827;53.594;9.938;2022-11-30T03:39:40;5.10;99.90
15452;DHT22;7827;53.594;9.938;2022-11-30T03:42:08;5.10;99.90
15452;DHT22;7827;53.594;9.938;2022-11-30T03:44:37;5.10;99.90
15452;DHT22;7827;53.594;9.938;2022-11-30T03:47:05;5.10;99.90
15452;DHT22;7827;53.594;9.938;2022-11-30T03:49:34;5.20;99.90
15452;DHT22;7827;53.594;9.938;2022-11-30T03:52:04;5.20;99.90
15452;DHT22;7827;53.594;9.938;2022-11-30T03:54:32;5.00;99.90
15452;DHT22;7827;53.594;9.938;2022-11-30T03:57:00;5.10;99.90
15452;DHT22;7827;53.594;9.938;2022-11-30T03:59:29;5.10;99.90
15452;DHT22;7827;53.594;9.938;2022-11-30T04:01:58;5.10;99.90
15452;DHT22;7827;53.594;9.938;2022-11-30T04:04:26;5.00;99.90
15452;DHT22;7827;53.594;9.938;2022-11-30T04:06:54;5.10;99.90
15452;DHT22;7827;53.594;9.938;2022-11-30T04:09:24;5.10;99.90
15452;DHT22;7827;53.594;9.938;2022-11-30T04:11:53;5.00;99.90
15452;DHT22;7827;53.594;9.938;2022-11-30T04:14:21;5.10;99.90
15452;DHT22;7827;53.594;9.938;2022-11-30T04:16:49;5.10;99.90
15452;DHT22;7827;53.594;9.938;2022-11-30T04:19:18;5.20;99.90
15452;DHT22;7827;53.594;9.938;2022-11-30T04:21:46;5.10;99.90
15452;DHT22;7827;53.594;9.938;2022-11-30T04:24:15;5.10;99.90
15452;DHT22;7827;53.594;9.938;2022-11-30T04:26:45;5.10;99.90
15452;DHT22;7827;53.594;9.938;2022-11-30T04:29:13;5.20;99.90
15452;DHT22;7827;53.594;9.938;2022-11-30T04:31:41;5.10;99.90
15452;DHT22;7827;53.594;9.938;2022-11-30T04:34:10;5.10;99.90
15452;DHT22;7827;53.594;9.938;2022-11-30T04:36:39;5.10;99.90
15452;DHT22;7827;53.594;9.938;2022-11-30T04:39:07;5.20;99.90
15452;DHT22;7827;53.594;9.938;2022-11-30T04:41:35;5.20;99.90
15452;DHT22;7827;53.594;9.938;2022-11-30T04:44:05;5.10;99.90
15452;DHT22;7827;53.594;9.938;2022-11-30T04:46:35;5.10;99.90
15452;DHT22;7827;53.594;9.938;2022-11-30T04:49:03;5.10;99.90
15452;DHT22;7827;53.594;9.938;2022-11-30T04:51:32;5.00;99.90
15452;DHT22;7827;53.594;9.938;2022-11-30T04:54:00;5.20;99.90
15452;DHT22;7827;53.594;9.938;2022-11-30T04:56:28;5.20;99.90
15452;DHT22;7827;53.594;9.938;2022-11-30T04:58:57;5.20;99.90
15452;DHT22;7827;53.594;9.938;2022-11-30T05:01:26;5.20;99.90
15452;DHT22;7827;53.594;9.938;2022-11-30T05:03:55;5.20;99.90
15452;DHT22;7827;53.594;9.938;2022-11-30T05:06:26;5.10;99.90
15452;DHT22;7827;53.594;9.938;2022-11-30T05:08:54;5.10;99.90
15452;DHT22;7827;53.594;9.938;2022-11-30T05:11:23;5.10;99.90
15452;DHT22;7827;53.594;9.938;2022-11-30T05:13:51;5.20;99.90
15452;DHT22;7827;53.594;9.938;2022-11-30T05:16:19;5.10;99.90
15452;DHT22;7827;53.594;9.938;2022-11-30T05:18:49;5.10;99.90
15452;DHT22;7827;53.594;9.938;2022-11-30T05:21:17;5.10;99.90
15452;DHT22;7827;53.594;9.938;2022-11-30T05:23:46;5.10;99.90
15452;DHT22;7827;53.594;9.938;2022-11-30T05:26:15;5.20;99.90
15452;DHT22;7827;53.594;9.938;2022-11-30T05:28:43;5.20;99.90
15452;DHT22;7827;53.594;9.938;2022-11-30T05:31:11;5.10;99.90
15452;DHT22;7827;53.594;9.938;2022-11-30T05:33:39;5.10;99.90
15452;DHT22;7827;53.594;9.938;2022-11-30T05:36:09;5.00;99.90
15452;DHT22;7827;53.594;9.938;2022-11-30T05:38:38;5.00;99.90
15452;DHT22;7827;53.594;9.938;2022-11-30T05:41:06;5.00;99.90
15452;DHT22;7827;53.594;9.938;2022-11-30T05:43:34;5.10;99.90
15452;DHT22;7827;53.594;9.938;2022-11-30T05:46:05;5.10;99.90
15452;DHT22;7827;53.594;9.938;2022-11-30T05:48:35;5.10;99.90
15452;DHT22;7827;53.594;9.938;2022-11-30T05:51:05;5.10;99.90
15452;DHT22;7827;53.594;9.938;2022-11-30T05:53:36;5.00;99.90
15452;DHT22;7827;53.594;9.938;2022-11-30T05:56:07;5.10;99.90
15452;DHT22;7827;53.594;9.938;2022-11-30T05:58:37;5.10;99.90
15452;DHT22;7827;53.594;9.938;2022-11-30T06:01:06;5.00;99.90
15452;DHT22;7827;53.594;9.938;2022-11-30T06:03:35;5.00;99.90
15452;DHT22;7827;53.594;9.938;2022-11-30T06:06:03;5.10;99.90
15452;DHT22;7827;53.594;9.938;2022-11-30T06:08:32;5.00;99.90
15452;DHT22;7827;53.594;9.938;2022-11-30T06:11:02;5.10;99.90
15452;DHT22;7827;53.594;9.938;2022-11-30T06:13:30;5.20;99.90
15452;DHT22;7827;53.594;9.938;2022-11-30T06:15:59;5.20;99.90
15452;DHT22;7827;53.594;9.938;2022-11-30T06:18:27;5.10;99.90
15452;DHT22;7827;53.594;9.938;2022-11-30T06:20:59;5.10;99.90
15452;DHT22;7827;53.594;9.938;2022-11-30T06:23:28;5.10;99.90
15452;DHT22;7827;53.594;9.938;2022-11-30T06:25:56;5.20;99.90
15452;DHT22;7827;53.594;9.938;2022-11-30T06:28:26;5.20;99.90
15452;DHT22;7827;53.594;9.938;2022-11-30T06:30:57;5.20;99.90
15452;DHT22;7827;53.594;9.938;2022-11-30T06:33:26;5.20;99.90
15452;DHT22;7827;53.594;9.938;2022-11-30T06:35:55;5.30;99.90
15452;DHT22;7827;53.594;9.938;2022-11-30T06:38:23;5.20;99.90
15452;DHT22;7827;53.594;9.938;2022-11-30T06:40:52;5.20;99.90
15452;DHT22;7827;53.594;9.938;2022-11-30T06:43:21;5.20;99.90
15452;DHT22;7827;53.594;9.938;2022-11-30T06:45:50;5.20;99.90
15452;DHT22;7827;53.594;9.938;2022-11-30T06:48:19;5.30;99.90
15452;DHT22;7827;53.594;9.938;2022-11-30T06:50:48;5.30;99.90
15452;DHT22;7827;53.594;9.938;2022-11-30T06:53:17;5.20;99.90
15452;DHT22;7827;53.594;9.938;2022-11-30T06:55:45;5.20;99.90
15452;DHT22;7827;53.594;9.938;2022-11-30T06:58:13;5.20;99.90
15452;DHT22;7827;53.594;9.938;2022-11-30T07:00:42;5.20;99.90
15452;DHT22;7827;53.594;9.938;2022-11-30T07:03:13;5.20;99.90
15452;DHT22;7827;53.594;9.938;2022-11-30T07:05:44;5.30;99.90
15452;DHT22;7827;53.594;9.938;2022-11-30T07:08:14;5.30;99.90
15452;DHT22;7827;53.594;9.938;2022-11-30T07:10:45;5.20;99.90
15452;DHT22;7827;53.594;9.938;2022-11-30T07:13:15;5.40;99.90
15452;DHT22;7827;53.594;9.938;2022-11-30T07:15:45;5.40;99.90
15452;DHT22;7827;53.594;9.938;2022-11-30T07:18:15;5.40;99.90
15452;DHT22;7827;53.594;9.938;2022-11-30T07:20:43;5.40;99.90
15452;DHT22;7827;53.594;9.938;2022-11-30T07:23:11;5.50;99.90
15452;DHT22;7827;53.594;9.938;2022-11-30T07:25:59;5.40;99.90
15452;DHT22;7827;53.594;9.938;2022-11-30T07:28:37;5.40;99.90
15452;DHT22;7827;53.594;9.938;2022-11-30T07:31:14;5.40;99.90
15452;DHT22;7827;53.594;9.938;2022-11-30T07:33:46;5.30;99.90
15452;DHT22;7827;53.594;9.938;2022-11-30T07:36:15;5.20;99.90
15452;DHT22;7827;53.594;9.938;2022-11-30T07:38:45;5.20;99.90
15452;DHT22;7827;53.594;9.938;2022-11-30T07:41:14;5.30;99.90
15452;DHT22;7827;53.594;9.938;2022-11-30T07:43:43;5.20;99.90
15452;DHT22;7827;53.594;9.938;2022-11-30T07:46:12;5.30;99.90
15452;DHT22;7827;53.594;9.938;2022-11-30T07:48:42;5.30;99.90
15452;DHT22;7827;53.594;9.938;2022-11-30T07:51:14;5.20;99.90
15452;DHT22;7827;53.594;9.938;2022-11-30T07:53:44;5.20;99.90
15452;DHT22;7827;53.594;9.938;2022-11-30T07:56:14;5.20;99.90
15452;DHT22;7827;53.594;9.938;2022-11-30T07:58:44;5.20;99.90
15452;DHT22;7827;53.594;9.938;2022-11-30T08:01:16;5.10;99.90
15452;DHT22;7827;53.594;9.938;2022-11-30T08:03:47;5.20;99.90
15452;DHT22;7827;53.594;9.938;2022-11-30T08:06:19;5.20;99.90
15452;DHT22;7827;53.594;9.938;2022-11-30T08:08:50;5.30;99.90
15452;DHT22;7827;53.594;9.938;2022-11-30T08:11:22;5.10;99.90
15452;DHT22;7827;53.594;9.938;2022-11-30T08:13:52;5.20;99.90
15452;DHT22;7827;53.594;9.938;2022-11-30T08:16:23;5.10;99.90
15452;DHT22;7827;53.594;9.938;2022-11-30T08:18:54;5.10;99.90
15452;DHT22;7827;53.594;9.938;2022-11-30T08:21:25;5.00;99.90
15452;DHT22;7827;53.594;9.938;2022-11-30T08:23:55;5.20;99.90
15452;DHT22;7827;53.594;9.938;2022-11-30T08:26:25;5.30;99.90
15452;DHT22;7827;53.594;9.938;2022-11-30T08:28:56;5.40;99.90
15452;DHT22;7827;53.594;9.938;2022-11-30T08:31:27;5.40;99.90
15452;DHT22;7827;53.594;9.938;2022-11-30T08:34:00;5.60;99.90
15452;DHT22;7827;53.594;9.938;2022-11-30T08:36:32;5.60;99.90
15452;DHT22;7827;53.594;9.938;2022-11-30T08:39:02;5.60;99.90
15452;DHT22;7827;53.594;9.938;2022-11-30T08:41:33;5.40;99.90
15452;DHT22;7827;53.594;9.938;2022-11-30T08:44:02;5.30;99.90
15452;DHT22;7827;53.594;9.938;2022-11-30T08:46:30;5.30;99.90
15452;DHT22;7827;53.594;9.938;2022-11-30T08:49:19;5.30;99.90
15452;DHT22;7827;53.594;9.938;2022-11-30T08:51:53;5.30;99.90
15452;DHT22;7827;53.594;9.938;2022-11-30T08:54:43;5.30;99.90
15452;DHT22;7827;53.594;9.938;2022-11-30T08:57:14;5.30;99.90
15452;DHT22;7827;53.594;9.938;2022-11-30T08:59:43;5.30;99.90
15452;DHT22;7827;53.594;9.938;2022-11-30T09:02:13;5.30;99.90
15452;DHT22;7827;53.594;9.938;2022-11-30T09:04:45;5.30;99.90
15452;DHT22;7827;53.594;9.938;2022-11-30T09:07:35;5.30;99.90
15452;DHT22;7827;53.594;9.938;2022-11-30T09:10:05;5.30;99.90
15452;DHT22;7827;53.594;9.938;2022-11-30T09:12:35;5.30;99.90
15452;DHT22;7827;53.594;9.938;2022-11-30T09:15:05;5.30;99.90
15452;DHT22;7827;53.594;9.938;2022-11-30T09:17:35;5.30;99.90
15452;DHT22;7827;53.594;9.938;2022-11-30T09:20:05;5.20;99.90
15452;DHT22;7827;53.594;9.938;2022-11-30T09:22:36;5.30;99.90
15452;DHT22;7827;53.594;9.938;2022-11-30T09:25:05;5.20;99.90
15452;DHT22;7827;53.594;9.938;2022-11-30T09:27:33;5.20;99.90
15452;DHT22;7827;53.594;9.938;2022-11-30T09:30:03;5.20;99.90
15452;DHT22;7827;53.594;9.938;2022-11-30T09:32:32;5.20;99.90
15452;DHT22;7827;53.594;9.938;2022-11-30T09:35:01;5.30;99.90
15452;DHT22;7827;53.594;9.938;2022-11-30T09:37:29;5.40;99.90
15452;DHT22;7827;53.594;9.938;2022-11-30T09:39:59;5.30;99.90
15452;DHT22;7827;53.594;9.938;2022-11-30T09:42:43;5.40;99.90
15452;DHT22;7827;53.594;9.938;2022-11-30T09:45:24;5.50;99.90
15452;DHT22;7827;53.594;9.938;2022-11-30T09:48:17;5.60;99.90
15452;DHT22;7827;53.594;9.938;2022-11-30T09:50:53;5.80;99.90
15452;DHT22;7827;53.594;9.938;2022-11-30T09:53:37;5.80;99.90
15452;DHT22;7827;53.594;9.938;2022-11-30T09:56:18;5.90;99.90
15452;DHT22;7827;53.594;9.938;2022-11-30T09:58:53;5.70;99.90
15452;DHT22;7827;53.594;9.938;2022-11-30T10:01:23;5.70;99.90
15452;DHT22;7827;53.594;9.938;2022-11-30T10:03:58;5.70;99.90
15452;DHT22;7827;53.594;9.938;2022-11-30T10:06:35;5.70;99.90
15452;DHT22;7827;53.594;9.938;2022-11-30T10:09:26;5.80;99.90
15452;DHT22;7827;53.594;9.938;2022-11-30T10:12:06;5.90;99.90
15452;DHT22;7827;53.594;9.938;2022-11-30T10:15:05;5.80;99.90
15452;DHT22;7827;53.594;9.938;2022-11-30T10:17:54;5.80;99.90
15452;DHT22;7827;53.594;9.938;2022-11-30T10:20:47;5.60;99.90
15452;DHT22;7827;53.594;9.938;2022-11-30T10:23:42;5.50;99.90
15452;DHT22;7827;53.594;9.938;2022-11-30T10:26:27;5.50;99.90
15452;DHT22;7827;53.594;9.938;2022-11-30T10:29:09;5.50;99.90
15452;DHT22;7827;53.594;9.938;2022-11-30T10:31:45;5.50;99.90
15452;DHT22;7827;53.594;9.938;2022-11-30T10:34:19;5.40;99.90
15452;DHT22;7827;53.594;9.938;2022-11-30T10:36:52;5.40;99.90
15452;DHT22;7827;53.594;9.938;2022-11-30T10:39:31;5.40;99.90
15452;DHT22;7827;53.594;9.938;2022-11-30T10:42:08;5.30;99.90
15452;DHT22;7827;53.594;9.938;2022-11-30T10:44:42;5.40;99.90
15452;DHT22;7827;53.594;9.938;2022-11-30T10:47:28;5.30;99.90
15452;DHT22;7827;53.594;9.938;2022-11-30T10:50:03;5.30;99.90
15452;DHT22;7827;53.594;9.938;2022-11-30T10:52:40;5.30;99.90
15452;DHT22;7827;53.594;9.938;2022-11-30T10:55:13;5.30;99.90
15452;DHT22;7827;53.594;9.938;2022-11-30T10:57:47;5.20;99.90
15452;DHT22;7827;53.594;9.938;2022-11-30T11:00:20;5.30;99.90
15452;DHT22;7827;53.594;9.938;2022-11-30T11:02:51;5.30;99.90
15452;DHT22;7827;53.594;9.938;2022-11-30T11:05:21;5.40;99.90
15452;DHT22;7827;53.594;9.938;2022-11-30T11:07:57;5.40;99.90
15452;DHT22;7827;53.594;9.938;2022-11-30T11:10:35;5.40;99.90
15452;DHT22;7827;53.594;9.938;2022-11-30T11:13:14;5.40;99.90
15452;DHT22;7827;53.594;9.938;2022-11-30T11:15:56;5.40;99.90
15452;DHT22;7827;53.594;9.938;2022-11-30T11:18:27;5.40;99.90
15452;DHT22;7827;53.594;9.938;2022-11-30T11:21:04;5.40;99.90
15452;DHT22;7827;53.594;9.938;2022-11-30T11:23:36;5.40;99.90
15452;DHT22;7827;53.594;9.938;2022-11-30T11:26:07;5.40;99.90
15452;DHT22;7827;53.594;9.938;2022-11-30T11:28:46;5.40;99.90
15452;DHT22;7827;53.594;9.938;2022-11-30T11:31:31;5.30;99.90
15452;DHT22;7827;53.594;9.938;2022-11-30T11:34:02;5.30;99.90
15452;DHT22;7827;53.594;9.938;2022-11-30T11:36:34;5.30;99.90
15452;DHT22;7827;53.594;9.938;2022-11-30T11:39:07;5.30;99.90
15452;DHT22;7827;53.594;9.938;2022-11-30T11:41:52;5.30;99.90
15452;DHT22;7827;53.594;9.938;2022-11-30T11:44:22;5.30;99.90
15452;DHT22;7827;53.594;9.938;2022-11-30T11:46:56;5.30;99.90
15452;DHT22;7827;53.594;9.938;2022-11-30T11:49:28;5.40;99.90
15452;DHT22;7827;53.594;9.938;2022-11-30T11:52:00;5.40;99.90
15452;DHT22;7827;53.594;9.938;2022-11-30T11:54:33;5.40;99.90
15452;DHT22;7827;53.594;9.938;2022-11-30T11:57:07;5.50;99.90
15452;DHT22;7827;53.594;9.938;2022-11-30T11:59:43;5.40;99.90
15452;DHT22;7827;53.594;9.938;2022-11-30T12:02:25;5.40;99.90
15452;DHT22;7827;53.594;9.938;2022-11-30T12:05:01;5.40;99.90
15452;DHT22;7827;53.594;9.938;2022-11-30T12:07:39;5.30;99.90
15452;DHT22;7827;53.594;9.938;2022-11-30T12:10:24;5.30;99.90
15452;DHT22;7827;53.594;9.938;2022-11-30T12:13:18;5.30;99.90
15452;DHT22;7827;53.594;9.938;2022-11-30T12:15:59;5.40;99.90
15452;DHT22;7827;53.594;9.938;2022-11-30T12:18:44;5.40;99.90
15452;DHT22;7827;53.594;9.938;2022-11-30T12:21:27;5.30;99.90
15452;DHT22;7827;53.594;9.938;2022-11-30T12:24:22;5.30;99.90
15452;DHT22;7827;53.594;9.938;2022-11-30T12:27:06;5.30;99.90
15452;DHT22;7827;53.594;9.938;2022-11-30T12:29:54;5.30;99.90
15452;DHT22;7827;53.594;9.938;2022-11-30T12:32:41;5.40;99.90
15452;DHT22;7827;53.594;9.938;2022-11-30T12:35:35;5.30;99.90
15452;DHT22;7827;53.594;9.938;2022-11-30T12:38:19;5.30;99.90
15452;DHT22;7827;53.594;9.938;2022-11-30T12:40:59;5.30;99.90
15452;DHT22;7827;53.594;9.938;2022-11-30T12:43:44;5.40;99.90
15452;DHT22;7827;53.594;9.938;2022-11-30T12:46:21;5.30;99.90
15452;DHT22;7827;53.594;9.938;2022-11-30T12:49:09;5.40;99.90
15452;DHT22;7827;53.594;9.938;2022-11-30T12:51:52;5.40;99.90
15452;DHT22;7827;53.594;9.938;2022-11-30T12:54:33;5.40;99.90
15452;DHT22;7827;53.594;9.938;2022-11-30T12:57:12;5.40;99.90
15452;DHT22;7827;53.594;9.938;2022-11-30T12:59:50;5.40;99.90
15452;DHT22;7827;53.594;9.938;2022-11-30T13:02:44;5.40;99.90
15452;DHT22;7827;53.594;9.938;2022-11-30T13:05:29;5.30;99.90
15452;DHT22;7827;53.594;9.938;2022-11-30T13:08:06;5.20;99.90
15452;DHT22;7827;53.594;9.938;2022-11-30T13:10:50;5.20;99.90
15452;DHT22;7827;53.594;9.938;2022-11-30T13:13:24;5.30;99.90
15452;DHT22;7827;53.594;9.938;2022-11-30T13:15:58;5.20;99.90
15452;DHT22;7827;53.594;9.938;2022-11-30T13:18:30;5.20;99.90
15452;DHT22;7827;53.594;9.938;2022-11-30T13:21:04;5.20;99.90
15452;DHT22;7827;53.594;9.938;2022-11-30T13:23:41;5.20;99.90
15452;DHT22;7827;53.594;9.938;2022-11-30T13:26:21;5.20;99.90
15452;DHT22;7827;53.594;9.938;2022-11-30T13:29:13;5.20;99.90
15452;DHT22;7827;53.594;9.938;2022-11-30T13:31:54;5.20;99.90
15452;DHT22;7827;53.594;9.938;2022-11-30T13:34:31;5.20;99.90
15452;DHT22;7827;53.594;9.938;2022-11-30T13:37:03;5.20;99.90
15452;DHT22;7827;53.594;9.938;2022-11-30T13:39:46;5.10;99.90
15452;DHT22;7827;53.594;9.938;2022-11-30T13:42:37;5.20;99.90
15452;DHT22;7827;53.594;9.938;2022-11-30T13:45:32;5.00;99.90
15452;DHT22;7827;53.594;9.938;2022-11-30T13:48:17;5.00;99.90
15452;DHT22;7827;53.594;9.938;2022-11-30T13:50:56;5.10;99.90
15452;DHT22;7827;53.594;9.938;2022-11-30T13:53:26;5.10;99.90
15452;DHT22;7827;53.594;9.938;2022-11-30T13:56:03;5.10;99.90
15452;DHT22;7827;53.594;9.938;2022-11-30T13:58:34;5.10;99.90
15452;DHT22;7827;53.594;9.938;2022-11-30T14:01:24;5.10;99.90
15452;DHT22;7827;53.594;9.938;2022-11-30T14:04:31;5.20;99.90
15452;DHT22;7827;53.594;9.938;2022-11-30T14:07:01;5.20;99.90
15452;DHT22;7827;53.594;9.938;2022-11-30T14:13:00;5.20;99.90
15452;DHT22;7827;53.594;9.938;2022-11-30T14:15:51;5.10;99.90
15452;DHT22;7827;53.594;9.938;2022-11-30T14:18:41;5.10;99.90
15452;DHT22;7827;53.594;9.938;2022-11-30T14:21:21;5.10;99.90
15452;DHT22;7827;53.594;9.938;2022-11-30T14:23:56;5.00;99.90
15452;DHT22;7827;53.594;9.938;2022-11-30T14:26:31;5.00;99.90
15452;DHT22;7827;53.594;9.938;2022-11-30T14:29:12;5.10;99.90
15452;DHT22;7827;53.594;9.938;2022-11-30T14:31:53;5.20;99.90
15452;DHT22;7827;53.594;9.938;2022-11-30T14:34:25;5.20;99.90
15452;DHT22;7827;53.594;9.938;2022-11-30T14:37:01;5.50;99.90
15452;DHT22;7827;53.594;9.938;2022-11-30T14:39:34;5.50;99.90
15452;DHT22;7827;53.594;9.938;2022-11-30T14:42:04;5.70;99.90
15452;DHT22;7827;53.594;9.938;2022-11-30T14:44:38;5.80;99.90
15452;DHT22;7827;53.594;9.938;2022-11-30T14:47:15;5.70;99.90
15452;DHT22;7827;53.594;9.938;2022-11-30T14:49:49;5.60;99.90
15452;DHT22;7827;53.594;9.938;2022-11-30T14:52:34;5.50;99.90
15452;DHT22;7827;53.594;9.938;2022-11-30T14:55:19;5.50;99.90
15452;DHT22;7827;53.594;9.938;2022-11-30T14:58:02;5.40;99.90
15452;DHT22;7827;53.594;9.938;2022-11-30T15:00:42;5.30;99.90
15452;DHT22;7827;53.594;9.938;2022-11-30T15:03:18;5.20;99.90
15452;DHT22;7827;53.594;9.938;2022-11-30T15:05:53;5.30;99.90
15452;DHT22;7827;53.594;9.938;2022-11-30T15:08:26;5.30;99.90
15452;DHT22;7827;53.594;9.938;2022-11-30T15:11:10;5.20;99.90
15452;DHT22;7827;53.594;9.938;2022-11-30T15:13:42;5.10;99.90
15452;DHT22;7827;53.594;9.938;2022-11-30T15:16:20;5.00;99.90
15452;DHT22;7827;53.594;9.938;2022-11-30T15:18:55;5.00;99.90
15452;DHT22;7827;53.594;9.938;2022-11-30T15:21:26;5.00;99.90
15452;DHT22;7827;53.594;9.938;2022-11-30T15:23:58;5.00;99.90
15452;DHT22;7827;53.594;9.938;2022-11-30T15:26:30;5.00;99.90
15452;DHT22;7827;53.594;9.938;2022-11-30T15:29:06;5.10;99.90
15452;DHT22;7827;53.594;9.938;2022-11-30T15:31:43;5.10;99.90
15452;DHT22;7827;53.594;9.938;2022-11-30T15:34:17;5.20;99.90
15452;DHT22;7827;53.594;9.938;2022-11-30T15:36:47;5.20;99.90
15452;DHT22;7827;53.594;9.938;2022-11-30T15:39:18;5.20;99.90
15452;DHT22;7827;53.594;9.938;2022-11-30T15:41:52;5.20;99.90
15452;DHT22;7827;53.594;9.938;2022-11-30T15:44:24;5.20;99.90
15452;DHT22;7827;53.594;9.938;2022-11-30T15:46:58;5.30;99.90
15452;DHT22;7827;53.594;9.938;2022-11-30T15:49:29;5.30;99.90
15452;DHT22;7827;53.594;9.938;2022-11-30T15:52:01;5.30;99.90
15452;DHT22;7827;53.594;9.938;2022-11-30T15:54:42;5.20;99.90
15452;DHT22;7827;53.594;9.938;2022-11-30T15:57:15;5.20;99.90
15452;DHT22;7827;53.594;9.938;2022-11-30T15:59:51;5.10;99.90
15452;DHT22;7827;53.594;9.938;2022-11-30T16:02:35;5.30;99.90
15452;DHT22;7827;53.594;9.938;2022-11-30T16:05:23;5.10;99.90
15452;DHT22;7827;53.594;9.938;2022-11-30T16:07:53;5.10;99.90
15452;DHT22;7827;53.594;9.938;2022-11-30T16:10:28;5.10;99.90
15452;DHT22;7827;53.594;9.938;2022-11-30T16:13:01;5.00;99.90
15452;DHT22;7827;53.594;9.938;2022-11-30T16:15:32;5.00;99.90
15452;DHT22;7827;53.594;9.938;2022-11-30T16:18:12;5.10;99.90
15452;DHT22;7827;53.594;9.938;2022-11-30T16:20:45;5.00;99.90
15452;DHT22;7827;53.594;9.938;2022-11-30T16:23:16;5.00;99.90
15452;DHT22;7827;53.594;9.938;2022-11-30T16:25:46;5.10;99.90
15452;DHT22;7827;53.594;9.938;2022-11-30T16:28:17;5.10;99.90
15452;DHT22;7827;53.594;9.938;2022-11-30T16:30:47;5.10;99.90
15452;DHT22;7827;53.594;9.938;2022-11-30T16:33:19;5.00;99.90
15452;DHT22;7827;53.594;9.938;2022-11-30T16:35:53;5.00;99.90
15452;DHT22;7827;53.594;9.938;2022-11-30T16:38:24;5.00;99.90
15452;DHT22;7827;53.594;9.938;2022-11-30T16:40:53;4.90;99.90
15452;DHT22;7827;53.594;9.938;2022-11-30T16:43:22;4.90;99.90
15452;DHT22;7827;53.594;9.938;2022-11-30T16:45:52;4.90;99.90
15452;DHT22;7827;53.594;9.938;2022-11-30T16:48:22;4.90;99.90